sensor_id;sensor_type;location;lat;lon;timestamp;P1;durP1;ratioP1;P2;durP2;ratioP2
75737;SDS011;64356;45.638;13.764;2023-02-12T00:01:01;8.18;;;6.50;;
75737;SDS011;64356;45.638;13.764;2023-02-12T00:03:27;8.15;;;6.30;;
75737;SDS011;64356;45.638;13.764;2023-02-12T00:05:53;7.53;;;6.47;;
75737;SDS011;64356;45.638;13.764;2023-02-12T00:08:18;6.88;;;5.70;;
75737;SDS011;64356;45.638;13.764;2023-02-12T00:10:44;7.53;;;6.18;;
75737;SDS011;64356;45.638;13.764;2023-02-12T00:13:10;7.43;;;6.40;;
75737;SDS011;64356;45.638;13.764;2023-02-12T00:15:39;9.20;;;6.93;;
75737;SDS011;64356;45.638;13.764;2023-02-12T00:18:06;8.15;;;6.32;;
75737;SDS011;64356;45.638;13.764;2023-02-12T00:20:32;8.43;;;6.53;;
75737;SDS011;64356;45.638;13.764;2023-02-12T00:22:58;9.27;;;6.32;;
75737;SDS011;64356;45.638;13.764;2023-02-12T00:25:24;7.80;;;6.25;;
75737;SDS011;64356;45.638;13.764;2023-02-12T00:27:50;8.07;;;6.50;;
75737;SDS011;64356;45.638;13.764;2023-02-12T00:30:15;6.95;;;6.00;;
75737;SDS011;64356;45.638;13.764;2023-02-12T00:32:41;7.68;;;6.28;;
75737;SDS011;64356;45.638;13.764;2023-02-12T00:35:08;10.55;;;8.32;;
75737;SDS011;64356;45.638;13.764;2023-02-12T00:37:34;12.52;;;6.90;;
75737;SDS011;64356;45.638;13.764;2023-02-12T00:40:00;8.00;;;6.65;;
75737;SDS011;64356;45.638;13.764;2023-02-12T00:42:26;8.90;;;6.95;;
75737;SDS011;64356;45.638;13.764;2023-02-12T00:44:52;7.22;;;5.85;;
75737;SDS011;64356;45.638;13.764;2023-02-12T00:47:18;7.03;;;6.22;;
75737;SDS011;64356;45.638;13.764;2023-02-12T00:49:43;7.75;;;6.00;;
75737;SDS011;64356;45.638;13.764;2023-02-12T00:52:09;8.48;;;6.15;;
75737;SDS011;64356;45.638;13.764;2023-02-12T00:54:35;8.73;;;6.47;;
75737;SDS011;64356;45.638;13.764;2023-02-12T00:57:01;9.20;;;6.70;;
75737;SDS011;64356;45.638;13.764;2023-02-12T00:59:26;6.75;;;5.72;;
75737;SDS011;64356;45.638;13.764;2023-02-12T01:01:53;7.68;;;5.97;;
75737;SDS011;64356;45.638;13.764;2023-02-12T01:04:19;12.07;;;6.55;;
75737;SDS011;64356;45.638;13.764;2023-02-12T01:06:45;7.15;;;6.35;;
75737;SDS011;64356;45.638;13.764;2023-02-12T01:09:11;8.85;;;6.78;;
75737;SDS011;64356;45.638;13.764;2023-02-12T01:11:37;8.38;;;6.38;;
75737;SDS011;64356;45.638;13.764;2023-02-12T01:14:03;7.22;;;5.85;;
75737;SDS011;64356;45.638;13.764;2023-02-12T01:16:29;8.25;;;6.75;;
75737;SDS011;64356;45.638;13.764;2023-02-12T01:18:57;7.43;;;6.25;;
75737;SDS011;64356;45.638;13.764;2023-02-12T01:21:24;7.38;;;6.18;;
75737;SDS011;64356;45.638;13.764;2023-02-12T01:23:51;8.68;;;6.65;;
75737;SDS011;64356;45.638;13.764;2023-02-12T01:26:18;10.05;;;6.03;;
75737;SDS011;64356;45.638;13.764;2023-02-12T01:28:47;7.90;;;6.10;;
75737;SDS011;64356;45.638;13.764;2023-02-12T01:33:46;8.10;;;6.38;;
75737;SDS011;64356;45.638;13.764;2023-02-12T01:36:13;7.63;;;6.50;;
75737;SDS011;64356;45.638;13.764;2023-02-12T01:38:38;8.38;;;6.55;;
75737;SDS011;64356;45.638;13.764;2023-02-12T01:41:08;6.55;;;5.40;;
75737;SDS011;64356;45.638;13.764;2023-02-12T01:43:36;8.45;;;6.90;;
75737;SDS011;64356;45.638;13.764;2023-02-12T01:46:02;7.55;;;6.40;;
75737;SDS011;64356;45.638;13.764;2023-02-12T01:48:36;7.70;;;6.30;;
75737;SDS011;64356;45.638;13.764;2023-02-12T01:51:04;7.60;;;6.00;;
75737;SDS011;64356;45.638;13.764;2023-02-12T01:53:35;8.32;;;6.35;;
75737;SDS011;64356;45.638;13.764;2023-02-12T01:56:05;8.15;;;6.65;;
75737;SDS011;64356;45.638;13.764;2023-02-12T01:58:34;9.68;;;6.60;;
75737;SDS011;64356;45.638;13.764;2023-02-12T02:01:04;9.52;;;6.35;;
75737;SDS011;64356;45.638;13.764;2023-02-12T02:03:32;8.25;;;5.90;;
75737;SDS011;64356;45.638;13.764;2023-02-12T02:06:05;9.02;;;6.20;;
75737;SDS011;64356;45.638;13.764;2023-02-12T02:08:38;7.03;;;5.85;;
75737;SDS011;64356;45.638;13.764;2023-02-12T02:11:05;7.07;;;6.10;;
75737;SDS011;64356;45.638;13.764;2023-02-12T02:13:51;7.55;;;6.47;;
75737;SDS011;64356;45.638;13.764;2023-02-12T02:16:36;11.32;;;6.90;;
75737;SDS011;64356;45.638;13.764;2023-02-12T02:21:50;7.45;;;6.32;;
75737;SDS011;64356;45.638;13.764;2023-02-12T02:25:27;8.38;;;6.07;;
75737;SDS011;64356;45.638;13.764;2023-02-12T02:36:05;10.10;;;6.78;;
75737;SDS011;64356;45.638;13.764;2023-02-12T02:38:54;7.90;;;7.05;;
75737;SDS011;64356;45.638;13.764;2023-02-12T02:41:43;7.85;;;6.53;;
75737;SDS011;64356;45.638;13.764;2023-02-12T02:44:41;9.33;;;6.83;;
75737;SDS011;64356;45.638;13.764;2023-02-12T02:47:13;9.57;;;6.35;;
75737;SDS011;64356;45.638;13.764;2023-02-12T02:49:43;8.55;;;6.28;;
75737;SDS011;64356;45.638;13.764;2023-02-12T02:52:47;7.38;;;5.72;;
75737;SDS011;64356;45.638;13.764;2023-02-12T02:55:11;8.45;;;6.03;;
75737;SDS011;64356;45.638;13.764;2023-02-12T02:57:45;7.80;;;6.10;;
75737;SDS011;64356;45.638;13.764;2023-02-12T03:00:22;8.55;;;6.65;;
75737;SDS011;64356;45.638;13.764;2023-02-12T03:02:54;10.63;;;6.28;;
75737;SDS011;64356;45.638;13.764;2023-02-12T03:05:34;7.00;;;6.30;;
75737;SDS011;64356;45.638;13.764;2023-02-12T03:10:35;8.77;;;6.78;;
75737;SDS011;64356;45.638;13.764;2023-02-12T03:13:09;9.63;;;6.72;;
75737;SDS011;64356;45.638;13.764;2023-02-12T03:15:42;8.10;;;5.90;;
75737;SDS011;64356;45.638;13.764;2023-02-12T03:18:20;7.05;;;5.47;;
75737;SDS011;64356;45.638;13.764;2023-02-12T03:20:53;8.45;;;6.63;;
75737;SDS011;64356;45.638;13.764;2023-02-12T03:23:24;9.18;;;7.22;;
75737;SDS011;64356;45.638;13.764;2023-02-12T03:26:02;7.22;;;6.18;;
75737;SDS011;64356;45.638;13.764;2023-02-12T03:28:33;6.50;;;5.72;;
75737;SDS011;64356;45.638;13.764;2023-02-12T03:38:55;8.10;;;6.43;;
75737;SDS011;64356;45.638;13.764;2023-02-12T03:42:04;7.38;;;6.30;;
75737;SDS011;64356;45.638;13.764;2023-02-12T03:44:40;6.90;;;5.90;;
75737;SDS011;64356;45.638;13.764;2023-02-12T03:47:32;10.70;;;6.38;;
75737;SDS011;64356;45.638;13.764;2023-02-12T03:52:45;7.78;;;6.13;;
75737;SDS011;64356;45.638;13.764;2023-02-12T03:55:14;6.90;;;5.57;;
75737;SDS011;64356;45.638;13.764;2023-02-12T03:57:42;8.15;;;6.03;;
75737;SDS011;64356;45.638;13.764;2023-02-12T04:00:14;9.82;;;6.13;;
75737;SDS011;64356;45.638;13.764;2023-02-12T04:05:25;7.95;;;6.22;;
75737;SDS011;64356;45.638;13.764;2023-02-12T04:07:52;12.60;;;6.78;;
75737;SDS011;64356;45.638;13.764;2023-02-12T04:10:41;7.47;;;5.90;;
75737;SDS011;64356;45.638;13.764;2023-02-12T04:13:28;7.88;;;6.18;;
75737;SDS011;64356;45.638;13.764;2023-02-12T04:18:46;8.93;;;6.65;;
75737;SDS011;64356;45.638;13.764;2023-02-12T04:27:03;7.45;;;5.53;;
75737;SDS011;64356;45.638;13.764;2023-02-12T04:35:01;7.70;;;5.80;;
75737;SDS011;64356;45.638;13.764;2023-02-12T04:37:47;7.13;;;5.50;;
75737;SDS011;64356;45.638;13.764;2023-02-12T04:40:21;8.43;;;6.22;;
75737;SDS011;64356;45.638;13.764;2023-02-12T04:42:48;8.98;;;6.05;;
75737;SDS011;64356;45.638;13.764;2023-02-12T04:45:23;6.80;;;5.60;;
75737;SDS011;64356;45.638;13.764;2023-02-12T04:47:52;6.28;;;5.63;;
75737;SDS011;64356;45.638;13.764;2023-02-12T04:50:18;7.97;;;5.93;;
75737;SDS011;64356;45.638;13.764;2023-02-12T04:52:44;6.25;;;5.28;;
75737;SDS011;64356;45.638;13.764;2023-02-12T04:55:10;7.15;;;5.32;;
75737;SDS011;64356;45.638;13.764;2023-02-12T04:57:36;6.57;;;5.85;;
75737;SDS011;64356;45.638;13.764;2023-02-12T05:00:03;6.97;;;5.30;;
75737;SDS011;64356;45.638;13.764;2023-02-12T05:02:30;7.70;;;5.47;;
75737;SDS011;64356;45.638;13.764;2023-02-12T05:04:57;7.05;;;5.95;;
75737;SDS011;64356;45.638;13.764;2023-02-12T05:07:23;7.30;;;5.97;;
75737;SDS011;64356;45.638;13.764;2023-02-12T05:09:49;8.20;;;6.07;;
75737;SDS011;64356;45.638;13.764;2023-02-12T05:12:14;7.45;;;5.85;;
75737;SDS011;64356;45.638;13.764;2023-02-12T05:14:40;7.32;;;5.70;;
75737;SDS011;64356;45.638;13.764;2023-02-12T05:17:06;7.72;;;5.70;;
75737;SDS011;64356;45.638;13.764;2023-02-12T05:19:31;7.45;;;5.57;;
75737;SDS011;64356;45.638;13.764;2023-02-12T05:21:57;8.20;;;6.00;;
75737;SDS011;64356;45.638;13.764;2023-02-12T05:24:23;9.65;;;5.68;;
75737;SDS011;64356;45.638;13.764;2023-02-12T05:26:49;7.18;;;5.80;;
75737;SDS011;64356;45.638;13.764;2023-02-12T05:29:14;7.75;;;5.85;;
75737;SDS011;64356;45.638;13.764;2023-02-12T05:31:40;7.45;;;5.80;;
75737;SDS011;64356;45.638;13.764;2023-02-12T05:34:07;7.60;;;5.95;;
75737;SDS011;64356;45.638;13.764;2023-02-12T05:36:35;7.35;;;5.65;;
75737;SDS011;64356;45.638;13.764;2023-02-12T05:39:02;6.80;;;5.35;;
75737;SDS011;64356;45.638;13.764;2023-02-12T05:41:28;6.82;;;4.88;;
75737;SDS011;64356;45.638;13.764;2023-02-12T05:43:58;8.20;;;5.57;;
75737;SDS011;64356;45.638;13.764;2023-02-12T05:46:24;6.80;;;5.68;;
75737;SDS011;64356;45.638;13.764;2023-02-12T05:48:50;6.85;;;4.95;;
75737;SDS011;64356;45.638;13.764;2023-02-12T05:51:17;6.45;;;5.38;;
75737;SDS011;64356;45.638;13.764;2023-02-12T05:53:46;7.20;;;5.68;;
75737;SDS011;64356;45.638;13.764;2023-02-12T05:58:39;7.65;;;5.47;;
75737;SDS011;64356;45.638;13.764;2023-02-12T06:01:13;7.57;;;5.70;;
75737;SDS011;64356;45.638;13.764;2023-02-12T06:03:44;7.57;;;6.07;;
75737;SDS011;64356;45.638;13.764;2023-02-12T06:06:10;7.25;;;5.70;;
75737;SDS011;64356;45.638;13.764;2023-02-12T06:08:37;6.47;;;5.63;;
75737;SDS011;64356;45.638;13.764;2023-02-12T06:11:04;6.97;;;5.93;;
75737;SDS011;64356;45.638;13.764;2023-02-12T06:13:32;6.20;;;5.53;;
75737;SDS011;64356;45.638;13.764;2023-02-12T06:15:58;7.88;;;5.45;;
75737;SDS011;64356;45.638;13.764;2023-02-12T06:18:25;7.03;;;5.30;;
75737;SDS011;64356;45.638;13.764;2023-02-12T06:20:51;6.55;;;5.40;;
75737;SDS011;64356;45.638;13.764;2023-02-12T06:23:23;7.75;;;5.15;;
75737;SDS011;64356;45.638;13.764;2023-02-12T06:25:49;7.13;;;5.45;;
75737;SDS011;64356;45.638;13.764;2023-02-12T06:28:19;6.80;;;5.65;;
75737;SDS011;64356;45.638;13.764;2023-02-12T06:30:44;5.90;;;5.05;;
75737;SDS011;64356;45.638;13.764;2023-02-12T06:33:10;6.85;;;5.18;;
75737;SDS011;64356;45.638;13.764;2023-02-12T06:35:36;7.65;;;6.05;;
75737;SDS011;64356;45.638;13.764;2023-02-12T06:38:02;6.63;;;5.22;;
75737;SDS011;64356;45.638;13.764;2023-02-12T06:40:28;6.72;;;5.63;;
75737;SDS011;64356;45.638;13.764;2023-02-12T06:42:54;6.97;;;5.82;;
75737;SDS011;64356;45.638;13.764;2023-02-12T06:45:20;6.60;;;5.57;;
75737;SDS011;64356;45.638;13.764;2023-02-12T06:47:46;6.60;;;5.07;;
75737;SDS011;64356;45.638;13.764;2023-02-12T06:50:12;8.15;;;5.82;;
75737;SDS011;64356;45.638;13.764;2023-02-12T06:52:38;7.57;;;5.50;;
75737;SDS011;64356;45.638;13.764;2023-02-12T06:55:03;6.43;;;5.60;;
75737;SDS011;64356;45.638;13.764;2023-02-12T06:57:29;7.43;;;5.38;;
75737;SDS011;64356;45.638;13.764;2023-02-12T06:59:55;7.35;;;5.80;;
75737;SDS011;64356;45.638;13.764;2023-02-12T07:02:21;7.47;;;5.57;;
75737;SDS011;64356;45.638;13.764;2023-02-12T07:04:47;5.75;;;4.93;;
75737;SDS011;64356;45.638;13.764;2023-02-12T07:07:12;6.93;;;5.45;;
75737;SDS011;64356;45.638;13.764;2023-02-12T07:09:38;7.70;;;5.53;;
75737;SDS011;64356;45.638;13.764;2023-02-12T07:12:04;7.25;;;5.70;;
75737;SDS011;64356;45.638;13.764;2023-02-12T07:14:30;6.53;;;5.57;;
75737;SDS011;64356;45.638;13.764;2023-02-12T07:16:55;6.03;;;5.20;;
75737;SDS011;64356;45.638;13.764;2023-02-12T07:19:21;7.75;;;5.80;;
75737;SDS011;64356;45.638;13.764;2023-02-12T07:21:47;6.60;;;5.65;;
75737;SDS011;64356;45.638;13.764;2023-02-12T07:24:13;6.18;;;5.05;;
75737;SDS011;64356;45.638;13.764;2023-02-12T07:26:40;7.45;;;5.10;;
75737;SDS011;64356;45.638;13.764;2023-02-12T07:29:06;7.22;;;5.72;;
75737;SDS011;64356;45.638;13.764;2023-02-12T07:31:32;6.38;;;5.43;;
75737;SDS011;64356;45.638;13.764;2023-02-12T07:33:58;6.72;;;4.97;;
75737;SDS011;64356;45.638;13.764;2023-02-12T07:36:27;5.72;;;4.88;;
75737;SDS011;64356;45.638;13.764;2023-02-12T07:38:55;7.60;;;5.35;;
75737;SDS011;64356;45.638;13.764;2023-02-12T07:41:22;6.47;;;4.93;;
75737;SDS011;64356;45.638;13.764;2023-02-12T07:43:52;7.20;;;5.85;;
75737;SDS011;64356;45.638;13.764;2023-02-12T07:46:46;5.88;;;4.93;;
75737;SDS011;64356;45.638;13.764;2023-02-12T07:49:14;7.13;;;5.20;;
75737;SDS011;64356;45.638;13.764;2023-02-12T07:51:41;6.55;;;5.30;;
75737;SDS011;64356;45.638;13.764;2023-02-12T07:54:07;6.43;;;4.97;;
75737;SDS011;64356;45.638;13.764;2023-02-12T07:56:34;6.40;;;5.47;;
75737;SDS011;64356;45.638;13.764;2023-02-12T07:59:05;7.00;;;5.30;;
75737;SDS011;64356;45.638;13.764;2023-02-12T08:01:36;5.40;;;4.80;;
75737;SDS011;64356;45.638;13.764;2023-02-12T08:04:07;5.90;;;5.28;;
75737;SDS011;64356;45.638;13.764;2023-02-12T08:06:41;7.15;;;5.93;;
75737;SDS011;64356;45.638;13.764;2023-02-12T08:09:09;8.20;;;5.72;;
75737;SDS011;64356;45.638;13.764;2023-02-12T08:11:37;7.50;;;5.80;;
75737;SDS011;64356;45.638;13.764;2023-02-12T08:14:04;8.00;;;5.88;;
75737;SDS011;64356;45.638;13.764;2023-02-12T08:16:30;5.75;;;5.15;;
75737;SDS011;64356;45.638;13.764;2023-02-12T08:18:59;7.40;;;5.78;;
75737;SDS011;64356;45.638;13.764;2023-02-12T08:21:26;5.97;;;5.05;;
75737;SDS011;64356;45.638;13.764;2023-02-12T08:23:53;7.03;;;5.50;;
75737;SDS011;64356;45.638;13.764;2023-02-12T08:26:21;7.15;;;5.50;;
75737;SDS011;64356;45.638;13.764;2023-02-12T08:28:50;7.13;;;5.40;;
75737;SDS011;64356;45.638;13.764;2023-02-12T08:31:19;5.90;;;5.20;;
75737;SDS011;64356;45.638;13.764;2023-02-12T08:33:47;7.55;;;5.50;;
75737;SDS011;64356;45.638;13.764;2023-02-12T08:36:15;6.25;;;5.13;;
75737;SDS011;64356;45.638;13.764;2023-02-12T08:38:43;6.38;;;5.22;;
75737;SDS011;64356;45.638;13.764;2023-02-12T08:41:11;5.68;;;4.60;;
75737;SDS011;64356;45.638;13.764;2023-02-12T08:43:42;6.45;;;5.13;;
75737;SDS011;64356;45.638;13.764;2023-02-12T08:46:15;7.30;;;5.90;;
75737;SDS011;64356;45.638;13.764;2023-02-12T08:48:43;6.13;;;5.03;;
75737;SDS011;64356;45.638;13.764;2023-02-12T08:53:38;6.40;;;5.63;;
75737;SDS011;64356;45.638;13.764;2023-02-12T08:56:06;6.50;;;5.47;;
75737;SDS011;64356;45.638;13.764;2023-02-12T08:58:33;6.18;;;5.28;;
75737;SDS011;64356;45.638;13.764;2023-02-12T09:00:59;5.82;;;4.85;;
75737;SDS011;64356;45.638;13.764;2023-02-12T09:03:25;5.20;;;4.70;;
75737;SDS011;64356;45.638;13.764;2023-02-12T09:05:51;7.10;;;5.47;;
75737;SDS011;64356;45.638;13.764;2023-02-12T09:08:17;5.82;;;5.18;;
75737;SDS011;64356;45.638;13.764;2023-02-12T09:10:43;5.75;;;4.85;;
75737;SDS011;64356;45.638;13.764;2023-02-12T09:13:10;6.07;;;4.95;;
75737;SDS011;64356;45.638;13.764;2023-02-12T09:15:41;6.38;;;5.50;;
75737;SDS011;64356;45.638;13.764;2023-02-12T09:20:38;9.10;;;5.93;;
75737;SDS011;64356;45.638;13.764;2023-02-12T09:23:06;6.60;;;5.43;;
75737;SDS011;64356;45.638;13.764;2023-02-12T09:25:32;6.03;;;5.10;;
75737;SDS011;64356;45.638;13.764;2023-02-12T09:28:01;5.20;;;4.70;;
75737;SDS011;64356;45.638;13.764;2023-02-12T09:30:27;6.15;;;4.60;;
75737;SDS011;64356;45.638;13.764;2023-02-12T09:32:53;5.65;;;4.75;;
75737;SDS011;64356;45.638;13.764;2023-02-12T09:35:20;5.32;;;4.82;;
75737;SDS011;64356;45.638;13.764;2023-02-12T09:37:46;6.88;;;5.30;;
75737;SDS011;64356;45.638;13.764;2023-02-12T09:40:21;6.53;;;4.80;;
75737;SDS011;64356;45.638;13.764;2023-02-12T09:45:34;7.70;;;5.28;;
75737;SDS011;64356;45.638;13.764;2023-02-12T09:50:53;6.80;;;5.53;;
75737;SDS011;64356;45.638;13.764;2023-02-12T09:53:22;5.90;;;5.30;;
75737;SDS011;64356;45.638;13.764;2023-02-12T09:55:52;6.47;;;5.03;;
75737;SDS011;64356;45.638;13.764;2023-02-12T09:58:26;5.63;;;4.63;;
75737;SDS011;64356;45.638;13.764;2023-02-12T10:01:10;6.50;;;4.72;;
75737;SDS011;64356;45.638;13.764;2023-02-12T10:03:38;5.88;;;5.07;;
75737;SDS011;64356;45.638;13.764;2023-02-12T10:06:04;6.00;;;4.75;;
75737;SDS011;64356;45.638;13.764;2023-02-12T10:15:09;6.00;;;4.57;;
75737;SDS011;64356;45.638;13.764;2023-02-12T10:23:36;7.85;;;5.35;;
75737;SDS011;64356;45.638;13.764;2023-02-12T10:29:19;5.63;;;4.68;;
75737;SDS011;64356;45.638;13.764;2023-02-12T10:31:49;5.90;;;4.95;;
75737;SDS011;64356;45.638;13.764;2023-02-12T10:34:20;5.32;;;4.53;;
75737;SDS011;64356;45.638;13.764;2023-02-12T10:36:49;5.88;;;5.25;;
75737;SDS011;64356;45.638;13.764;2023-02-12T10:39:26;7.00;;;4.95;;
75737;SDS011;64356;45.638;13.764;2023-02-12T10:44:36;6.70;;;4.73;;
75737;SDS011;64356;45.638;13.764;2023-02-12T10:47:02;6.03;;;5.22;;
75737;SDS011;64356;45.638;13.764;2023-02-12T10:49:30;8.57;;;4.95;;
75737;SDS011;64356;45.638;13.764;2023-02-12T10:55:01;5.38;;;4.65;;
75737;SDS011;64356;45.638;13.764;2023-02-12T10:57:30;7.00;;;5.50;;
75737;SDS011;64356;45.638;13.764;2023-02-12T11:00:35;7.25;;;5.15;;
75737;SDS011;64356;45.638;13.764;2023-02-12T11:03:01;6.13;;;4.78;;
75737;SDS011;64356;45.638;13.764;2023-02-12T11:05:31;6.45;;;5.18;;
75737;SDS011;64356;45.638;13.764;2023-02-12T11:07:59;5.30;;;4.75;;
75737;SDS011;64356;45.638;13.764;2023-02-12T11:12:56;6.03;;;5.03;;
75737;SDS011;64356;45.638;13.764;2023-02-12T11:15:26;6.57;;;4.90;;
75737;SDS011;64356;45.638;13.764;2023-02-12T11:18:00;5.63;;;5.03;;
75737;SDS011;64356;45.638;13.764;2023-02-12T11:20:33;5.65;;;4.93;;
75737;SDS011;64356;45.638;13.764;2023-02-12T11:23:03;6.20;;;5.25;;
75737;SDS011;64356;45.638;13.764;2023-02-12T11:25:32;6.53;;;5.10;;
75737;SDS011;64356;45.638;13.764;2023-02-12T11:28:02;5.72;;;4.68;;
75737;SDS011;64356;45.638;13.764;2023-02-12T11:33:21;5.97;;;5.03;;
75737;SDS011;64356;45.638;13.764;2023-02-12T11:35:53;5.82;;;5.13;;
75737;SDS011;64356;45.638;13.764;2023-02-12T11:38:23;6.28;;;5.00;;
75737;SDS011;64356;45.638;13.764;2023-02-12T11:40:53;5.22;;;4.65;;
75737;SDS011;64356;45.638;13.764;2023-02-12T11:43:32;4.90;;;4.40;;
75737;SDS011;64356;45.638;13.764;2023-02-12T11:46:02;5.45;;;4.78;;
75737;SDS011;64356;45.638;13.764;2023-02-12T11:48:32;5.20;;;4.47;;
75737;SDS011;64356;45.638;13.764;2023-02-12T11:51:03;5.95;;;4.85;;
75737;SDS011;64356;45.638;13.764;2023-02-12T11:53:37;5.18;;;4.68;;
75737;SDS011;64356;45.638;13.764;2023-02-12T11:56:07;6.82;;;4.80;;
75737;SDS011;64356;45.638;13.764;2023-02-12T11:58:34;6.00;;;5.00;;
75737;SDS011;64356;45.638;13.764;2023-02-12T12:01:08;6.75;;;4.88;;
75737;SDS011;64356;45.638;13.764;2023-02-12T12:06:43;6.45;;;5.05;;
75737;SDS011;64356;45.638;13.764;2023-02-12T12:09:23;6.20;;;5.18;;
75737;SDS011;64356;45.638;13.764;2023-02-12T12:17:24;4.97;;;4.47;;
75737;SDS011;64356;45.638;13.764;2023-02-12T12:20:16;5.85;;;4.63;;
75737;SDS011;64356;45.638;13.764;2023-02-12T12:25:35;5.00;;;4.50;;
75737;SDS011;64356;45.638;13.764;2023-02-12T12:36:13;5.35;;;4.85;;
75737;SDS011;64356;45.638;13.764;2023-02-12T12:44:33;5.90;;;4.68;;
75737;SDS011;64356;45.638;13.764;2023-02-12T12:47:31;5.78;;;5.00;;
75737;SDS011;64356;45.638;13.764;2023-02-12T12:55:20;5.40;;;4.68;;
75737;SDS011;64356;45.638;13.764;2023-02-12T13:15:07;6.22;;;4.88;;
75737;SDS011;64356;45.638;13.764;2023-02-12T13:23:20;6.93;;;4.90;;
75737;SDS011;64356;45.638;13.764;2023-02-12T13:26:03;6.53;;;5.13;;
75737;SDS011;64356;45.638;13.764;2023-02-12T13:28:37;6.25;;;5.30;;
75737;SDS011;64356;45.638;13.764;2023-02-12T13:31:13;7.32;;;5.30;;
75737;SDS011;64356;45.638;13.764;2023-02-12T13:33:52;6.00;;;5.10;;
75737;SDS011;64356;45.638;13.764;2023-02-12T13:36:20;6.32;;;5.50;;
75737;SDS011;64356;45.638;13.764;2023-02-12T13:38:57;5.35;;;4.57;;
75737;SDS011;64356;45.638;13.764;2023-02-12T13:41:31;6.55;;;5.55;;
75737;SDS011;64356;45.638;13.764;2023-02-12T14:01:09;5.63;;;4.55;;
75737;SDS011;64356;45.638;13.764;2023-02-12T14:03:36;5.82;;;5.00;;
75737;SDS011;64356;45.638;13.764;2023-02-12T14:08:39;5.45;;;4.65;;
75737;SDS011;64356;45.638;13.764;2023-02-12T14:11:12;5.63;;;4.82;;
75737;SDS011;64356;45.638;13.764;2023-02-12T14:16:34;5.95;;;4.95;;
75737;SDS011;64356;45.638;13.764;2023-02-12T14:22:10;5.50;;;4.90;;
75737;SDS011;64356;45.638;13.764;2023-02-12T14:33:18;5.38;;;4.50;;
75737;SDS011;64356;45.638;13.764;2023-02-12T14:35:39;5.15;;;4.47;;
75737;SDS011;64356;45.638;13.764;2023-02-12T14:40:40;6.85;;;4.93;;
75737;SDS011;64356;45.638;13.764;2023-02-12T14:45:51;6.60;;;5.13;;
75737;SDS011;64356;45.638;13.764;2023-02-12T14:51:03;5.07;;;4.50;;
75737;SDS011;64356;45.638;13.764;2023-02-12T14:53:33;4.90;;;4.35;;
75737;SDS011;64356;45.638;13.764;2023-02-12T14:56:01;5.50;;;4.82;;
75737;SDS011;64356;45.638;13.764;2023-02-12T14:58:27;6.53;;;5.15;;
75737;SDS011;64356;45.638;13.764;2023-02-12T15:00:57;4.53;;;4.07;;
75737;SDS011;64356;45.638;13.764;2023-02-12T15:03:42;5.88;;;4.78;;
75737;SDS011;64356;45.638;13.764;2023-02-12T15:06:24;5.00;;;4.50;;
75737;SDS011;64356;45.638;13.764;2023-02-12T15:09:14;6.22;;;4.90;;
75737;SDS011;64356;45.638;13.764;2023-02-12T15:11:49;6.05;;;5.13;;
75737;SDS011;64356;45.638;13.764;2023-02-12T15:14:21;5.25;;;4.68;;
75737;SDS011;64356;45.638;13.764;2023-02-12T15:22:19;5.55;;;4.80;;
75737;SDS011;64356;45.638;13.764;2023-02-12T15:24:50;5.40;;;4.30;;
75737;SDS011;64356;45.638;13.764;2023-02-12T15:27:16;5.20;;;4.70;;
75737;SDS011;64356;45.638;13.764;2023-02-12T15:29:48;5.85;;;4.57;;
75737;SDS011;64356;45.638;13.764;2023-02-12T15:32:22;6.05;;;4.93;;
75737;SDS011;64356;45.638;13.764;2023-02-12T15:34:51;4.93;;;4.40;;
75737;SDS011;64356;45.638;13.764;2023-02-12T15:37:24;5.88;;;4.90;;
75737;SDS011;64356;45.638;13.764;2023-02-12T15:39:55;5.45;;;4.55;;
75737;SDS011;64356;45.638;13.764;2023-02-12T15:44:50;4.80;;;4.30;;
75737;SDS011;64356;45.638;13.764;2023-02-12T15:47:15;5.00;;;4.50;;
75737;SDS011;64356;45.638;13.764;2023-02-12T15:49:48;5.82;;;4.70;;
75737;SDS011;64356;45.638;13.764;2023-02-12T15:52:20;6.05;;;4.85;;
75737;SDS011;64356;45.638;13.764;2023-02-12T15:54:57;5.57;;;4.82;;
75737;SDS011;64356;45.638;13.764;2023-02-12T15:57:23;6.07;;;5.30;;
75737;SDS011;64356;45.638;13.764;2023-02-12T15:59:49;5.82;;;4.85;;
75737;SDS011;64356;45.638;13.764;2023-02-12T16:02:27;6.70;;;4.95;;
75737;SDS011;64356;45.638;13.764;2023-02-12T16:04:57;6.38;;;5.03;;
75737;SDS011;64356;45.638;13.764;2023-02-12T16:07:27;5.30;;;4.80;;
75737;SDS011;64356;45.638;13.764;2023-02-12T16:09:56;5.95;;;4.55;;
75737;SDS011;64356;45.638;13.764;2023-02-12T16:12:23;5.32;;;4.72;;
75737;SDS011;64356;45.638;13.764;2023-02-12T16:14:55;6.03;;;4.82;;
75737;SDS011;64356;45.638;13.764;2023-02-12T16:20:31;6.47;;;4.63;;
75737;SDS011;64356;45.638;13.764;2023-02-12T16:22:44;5.18;;;4.30;;
75737;SDS011;64356;45.638;13.764;2023-02-12T16:25:19;5.32;;;4.80;;
75737;SDS011;64356;45.638;13.764;2023-02-12T16:30:52;5.18;;;4.68;;
75737;SDS011;64356;45.638;13.764;2023-02-12T16:36:26;5.95;;;4.90;;
75737;SDS011;64356;45.638;13.764;2023-02-12T16:38:54;6.20;;;4.95;;
75737;SDS011;64356;45.638;13.764;2023-02-12T16:41:23;5.53;;;4.63;;
75737;SDS011;64356;45.638;13.764;2023-02-12T16:46:23;4.93;;;4.43;;
75737;SDS011;64356;45.638;13.764;2023-02-12T16:48:50;5.53;;;4.63;;
75737;SDS011;64356;45.638;13.764;2023-02-12T16:53:46;6.30;;;4.78;;
75737;SDS011;64356;45.638;13.764;2023-02-12T16:56:14;5.80;;;4.47;;
75737;SDS011;64356;45.638;13.764;2023-02-12T16:58:42;8.68;;;5.25;;
75737;SDS011;64356;45.638;13.764;2023-02-12T17:01:09;4.78;;;4.28;;
75737;SDS011;64356;45.638;13.764;2023-02-12T17:03:42;5.13;;;4.50;;
75737;SDS011;64356;45.638;13.764;2023-02-12T17:06:08;5.65;;;4.55;;
75737;SDS011;64356;45.638;13.764;2023-02-12T17:08:35;4.90;;;4.40;;
75737;SDS011;64356;45.638;13.764;2023-02-12T17:11:01;6.00;;;4.55;;
75737;SDS011;64356;45.638;13.764;2023-02-12T17:13:26;5.05;;;4.53;;
75737;SDS011;64356;45.638;13.764;2023-02-12T17:15:56;5.53;;;4.78;;
75737;SDS011;64356;45.638;13.764;2023-02-12T17:18:23;5.82;;;4.68;;
75737;SDS011;64356;45.638;13.764;2023-02-12T17:20:59;7.63;;;4.68;;
75737;SDS011;64356;45.638;13.764;2023-02-12T17:23:28;4.93;;;4.40;;
75737;SDS011;64356;45.638;13.764;2023-02-12T17:25:55;6.20;;;4.90;;
75737;SDS011;64356;45.638;13.764;2023-02-12T17:28:21;4.57;;;4.15;;
75737;SDS011;64356;45.638;13.764;2023-02-12T17:30:49;6.65;;;5.45;;
75737;SDS011;64356;45.638;13.764;2023-02-12T17:33:15;5.68;;;4.53;;
75737;SDS011;64356;45.638;13.764;2023-02-12T17:35:41;5.55;;;4.82;;
75737;SDS011;64356;45.638;13.764;2023-02-12T17:38:07;6.22;;;4.93;;
75737;SDS011;64356;45.638;13.764;2023-02-12T17:40:36;5.07;;;4.57;;
75737;SDS011;64356;45.638;13.764;2023-02-12T17:43:03;4.60;;;4.20;;
75737;SDS011;64356;45.638;13.764;2023-02-12T17:45:29;5.13;;;4.22;;
75737;SDS011;64356;45.638;13.764;2023-02-12T17:47:56;5.00;;;4.50;;
75737;SDS011;64356;45.638;13.764;2023-02-12T17:50:22;4.68;;;4.28;;
75737;SDS011;64356;45.638;13.764;2023-02-12T17:52:48;5.88;;;5.05;;
75737;SDS011;64356;45.638;13.764;2023-02-12T17:55:14;5.07;;;4.57;;
75737;SDS011;64356;45.638;13.764;2023-02-12T17:57:41;5.35;;;4.80;;
75737;SDS011;64356;45.638;13.764;2023-02-12T18:00:07;5.45;;;4.68;;
75737;SDS011;64356;45.638;13.764;2023-02-12T18:02:35;4.82;;;4.32;;
75737;SDS011;64356;45.638;13.764;2023-02-12T18:05:01;5.43;;;4.93;;
75737;SDS011;64356;45.638;13.764;2023-02-12T18:07:27;5.20;;;4.60;;
75737;SDS011;64356;45.638;13.764;2023-02-12T18:09:56;5.97;;;5.00;;